sensor_id;sensor_type;location;lat;lon;timestamp;temperature;humidity
18189;DHT22;9219;50.396;8.546;2024-03-23T00:53:48;10.90;99.90
18189;DHT22;9219;50.396;8.546;2024-03-23T00:56:15;11.00;99.90
18189;DHT22;9219;50.396;8.546;2024-03-23T00:58:42;11.00;99.90
18189;DHT22;9219;50.396;8.546;2024-03-23T01:06:07;10.90;99.90
18189;DHT22;9219;50.396;8.546;2024-03-23T01:08:34;11.00;99.90
18189;DHT22;9219;50.396;8.546;2024-03-23T01:11:01;10.90;99.90
18189;DHT22;9219;50.396;8.546;2024-03-23T01:13:29;10.90;99.90
18189;DHT22;9219;50.396;8.546;2024-03-23T01:15:56;11.00;99.90
18189;DHT22;9219;50.396;8.546;2024-03-23T01:18:24;10.90;99.90
18189;DHT22;9219;50.396;8.546;2024-03-23T01:20:52;10.90;99.90
18189;DHT22;9219;50.396;8.546;2024-03-23T01:27:35;11.00;99.90
18189;DHT22;9219;50.396;8.546;2024-03-23T01:30:03;10.90;99.90
18189;DHT22;9219;50.396;8.546;2024-03-23T01:32:30;11.50;99.90
18189;DHT22;9219;50.396;8.546;2024-03-23T01:34:57;11.80;99.90
18189;DHT22;9219;50.396;8.546;2024-03-23T01:37:23;11.60;99.90
18189;DHT22;9219;50.396;8.546;2024-03-23T01:39:51;11.30;99.90
18189;DHT22;9219;50.396;8.546;2024-03-23T01:42:17;11.00;99.90
18189;DHT22;9219;50.396;8.546;2024-03-23T01:49:45;11.00;99.90
18189;DHT22;9219;50.396;8.546;2024-03-23T01:52:12;10.70;99.90
18189;DHT22;9219;50.396;8.546;2024-03-23T01:54:39;10.30;99.90
18189;DHT22;9219;50.396;8.546;2024-03-23T01:57:07;10.30;99.90
18189;DHT22;9219;50.396;8.546;2024-03-23T01:59:34;10.40;99.90
18189;DHT22;9219;50.396;8.546;2024-03-23T02:02:02;10.40;99.90
18189;DHT22;9219;50.396;8.546;2024-03-23T02:04:28;10.30;99.90
18189;DHT22;9219;50.396;8.546;2024-03-23T02:10:58;10.20;99.90
18189;DHT22;9219;50.396;8.546;2024-03-23T02:13:26;10.10;99.90
18189;DHT22;9219;50.396;8.546;2024-03-23T02:15:53;9.90;99.90
18189;DHT22;9219;50.396;8.546;2024-03-23T02:18:20;9.90;99.90
18189;DHT22;9219;50.396;8.546;2024-03-23T02:20:46;10.00;99.90
18189;DHT22;9219;50.396;8.546;2024-03-23T02:23:15;9.90;99.90
18189;DHT22;9219;50.396;8.546;2024-03-23T02:25:41;9.80;99.90
18189;DHT22;9219;50.396;8.546;2024-03-23T02:32:10;9.90;99.90
18189;DHT22;9219;50.396;8.546;2024-03-23T02:34:37;9.80;99.90
18189;DHT22;9219;50.396;8.546;2024-03-23T02:37:10;9.80;99.90
18189;DHT22;9219;50.396;8.546;2024-03-23T02:39:37;9.90;99.90
18189;DHT22;9219;50.396;8.546;2024-03-23T02:42:04;10.00;99.90
18189;DHT22;9219;50.396;8.546;2024-03-23T02:44:32;10.00;99.90
18189;DHT22;9219;50.396;8.546;2024-03-23T02:46:59;10.00;99.90
18189;DHT22;9219;50.396;8.546;2024-03-23T02:52:38;9.90;99.90
18189;DHT22;9219;50.396;8.546;2024-03-23T02:55:05;9.60;99.90
18189;DHT22;9219;50.396;8.546;2024-03-23T02:57:32;9.40;99.90
18189;DHT22;9219;50.396;8.546;2024-03-23T02:59:59;9.50;99.90
18189;DHT22;9219;50.396;8.546;2024-03-23T03:02:26;9.50;99.90
18189;DHT22;9219;50.396;8.546;2024-03-23T03:04:53;9.60;99.90
18189;DHT22;9219;50.396;8.546;2024-03-23T03:07:20;9.60;99.90
18189;DHT22;9219;50.396;8.546;2024-03-23T03:14:35;9.70;99.90
18189;DHT22;9219;50.396;8.546;2024-03-23T03:17:02;9.60;99.90
18189;DHT22;9219;50.396;8.546;2024-03-23T03:19:30;9.70;99.90
18189;DHT22;9219;50.396;8.546;2024-03-23T03:21:57;9.70;99.90
18189;DHT22;9219;50.396;8.546;2024-03-23T03:24:24;9.70;99.90
18189;DHT22;9219;50.396;8.546;2024-03-23T03:26:51;9.80;99.90
18189;DHT22;9219;50.396;8.546;2024-03-23T03:29:17;9.90;99.90
18189;DHT22;9219;50.396;8.546;2024-03-23T03:36:33;9.50;99.90
18189;DHT22;9219;50.396;8.546;2024-03-23T03:39:00;9.80;99.90
18189;DHT22;9219;50.396;8.546;2024-03-23T03:41:27;9.80;99.90
18189;DHT22;9219;50.396;8.546;2024-03-23T03:47:29;9.40;99.90
18189;DHT22;9219;50.396;8.546;2024-03-23T03:50:51;8.50;99.90
18189;DHT22;9219;50.396;8.546;2024-03-23T04:01:39;7.50;99.90
18189;DHT22;9219;50.396;8.546;2024-03-23T04:04:19;7.10;99.90
18189;DHT22;9219;50.396;8.546;2024-03-23T04:07:13;7.00;99.90
18189;DHT22;9219;50.396;8.546;2024-03-23T04:17:45;6.70;99.90
18189;DHT22;9219;50.396;8.546;2024-03-23T04:20:12;6.60;99.90
18189;DHT22;9219;50.396;8.546;2024-03-23T04:22:43;6.50;99.90
18189;DHT22;9219;50.396;8.546;2024-03-23T04:25:10;6.40;99.90
18189;DHT22;9219;50.396;8.546;2024-03-23T04:27:37;6.30;99.90
18189;DHT22;9219;50.396;8.546;2024-03-23T04:30:05;6.20;99.90
18189;DHT22;9219;50.396;8.546;2024-03-23T04:32:36;6.10;99.90
18189;DHT22;9219;50.396;8.546;2024-03-23T04:39:39;5.90;99.90
18189;DHT22;9219;50.396;8.546;2024-03-23T04:42:07;5.80;99.90
18189;DHT22;9219;50.396;8.546;2024-03-23T04:44:35;5.80;99.90
18189;DHT22;9219;50.396;8.546;2024-03-23T04:47:02;5.70;99.90
18189;DHT22;9219;50.396;8.546;2024-03-23T04:49:29;5.60;99.90
18189;DHT22;9219;50.396;8.546;2024-03-23T04:51:56;5.60;99.90
18189;DHT22;9219;50.396;8.546;2024-03-23T04:54:23;5.60;99.90
18189;DHT22;9219;50.396;8.546;2024-03-23T05:01:58;5.30;99.90
18189;DHT22;9219;50.396;8.546;2024-03-23T05:04:27;5.10;99.90
18189;DHT22;9219;50.396;8.546;2024-03-23T05:06:54;5.10;99.90
18189;DHT22;9219;50.396;8.546;2024-03-23T05:09:22;5.10;99.90
18189;DHT22;9219;50.396;8.546;2024-03-23T05:11:48;5.00;99.90
18189;DHT22;9219;50.396;8.546;2024-03-23T05:14:16;5.00;99.90
18189;DHT22;9219;50.396;8.546;2024-03-23T05:16:43;5.00;99.90
18189;DHT22;9219;50.396;8.546;2024-03-23T05:23:39;4.90;99.90
18189;DHT22;9219;50.396;8.546;2024-03-23T05:26:07;4.90;99.90
18189;DHT22;9219;50.396;8.546;2024-03-23T05:28:33;4.90;99.90
18189;DHT22;9219;50.396;8.546;2024-03-23T05:31:01;4.90;99.90
18189;DHT22;9219;50.396;8.546;2024-03-23T05:33:27;4.80;99.90
18189;DHT22;9219;50.396;8.546;2024-03-23T05:36:00;4.80;99.90
18189;DHT22;9219;50.396;8.546;2024-03-23T05:38:28;4.70;99.90
18189;DHT22;9219;50.396;8.546;2024-03-23T05:44:37;4.80;99.90
18189;DHT22;9219;50.396;8.546;2024-03-23T05:47:05;4.30;99.90
18189;DHT22;9219;50.396;8.546;2024-03-23T05:49:32;4.30;99.90
18189;DHT22;9219;50.396;8.546;2024-03-23T05:51:59;4.30;99.90
18189;DHT22;9219;50.396;8.546;2024-03-23T05:54:28;4.20;99.90
18189;DHT22;9219;50.396;8.546;2024-03-23T05:56:56;4.10;99.90
18189;DHT22;9219;50.396;8.546;2024-03-23T05:59:23;3.90;99.90
18189;DHT22;9219;50.396;8.546;2024-03-23T06:04:28;3.80;99.90
18189;DHT22;9219;50.396;8.546;2024-03-23T06:06:55;3.80;99.90
18189;DHT22;9219;50.396;8.546;2024-03-23T06:09:24;3.90;99.90
18189;DHT22;9219;50.396;8.546;2024-03-23T06:11:52;3.80;99.90
18189;DHT22;9219;50.396;8.546;2024-03-23T06:14:19;3.80;99.90
18189;DHT22;9219;50.396;8.546;2024-03-23T06:16:47;3.80;99.90
18189;DHT22;9219;50.396;8.546;2024-03-23T06:19:16;3.80;99.90
18189;DHT22;9219;50.396;8.546;2024-03-23T06:26:47;3.90;99.90
18189;DHT22;9219;50.396;8.546;2024-03-23T06:29:15;3.60;99.90
18189;DHT22;9219;50.396;8.546;2024-03-23T06:31:42;3.60;99.90
18189;DHT22;9219;50.396;8.546;2024-03-23T06:34:09;3.50;99.90
18189;DHT22;9219;50.396;8.546;2024-03-23T06:36:36;3.70;99.90
18189;DHT22;9219;50.396;8.546;2024-03-23T06:39:05;3.70;99.90
18189;DHT22;9219;50.396;8.546;2024-03-23T06:41:32;3.60;99.90
18189;DHT22;9219;50.396;8.546;2024-03-23T06:48:45;3.60;99.90
18189;DHT22;9219;50.396;8.546;2024-03-23T06:51:12;3.70;99.90
18189;DHT22;9219;50.396;8.546;2024-03-23T06:53:39;3.70;99.90
18189;DHT22;9219;50.396;8.546;2024-03-23T06:56:06;3.70;99.90
18189;DHT22;9219;50.396;8.546;2024-03-23T06:58:34;3.70;99.90
18189;DHT22;9219;50.396;8.546;2024-03-23T07:01:02;3.60;99.90
18189;DHT22;9219;50.396;8.546;2024-03-23T07:03:29;3.70;99.90
18189;DHT22;9219;50.396;8.546;2024-03-23T07:10:48;3.90;99.90
18189;DHT22;9219;50.396;8.546;2024-03-23T07:13:17;3.80;99.90
18189;DHT22;9219;50.396;8.546;2024-03-23T07:15:44;3.90;99.90
18189;DHT22;9219;50.396;8.546;2024-03-23T07:18:17;4.00;99.90
18189;DHT22;9219;50.396;8.546;2024-03-23T07:20:52;3.90;99.90
18189;DHT22;9219;50.396;8.546;2024-03-23T07:23:20;3.70;99.90
18189;DHT22;9219;50.396;8.546;2024-03-23T07:25:57;3.80;99.90
18189;DHT22;9219;50.396;8.546;2024-03-23T07:33:13;3.90;99.90
18189;DHT22;9219;50.396;8.546;2024-03-23T07:35:58;3.80;99.90
18189;DHT22;9219;50.396;8.546;2024-03-23T07:38:32;3.70;99.90
18189;DHT22;9219;50.396;8.546;2024-03-23T07:41:09;3.80;99.90
18189;DHT22;9219;50.396;8.546;2024-03-23T07:44:04;3.90;99.90
18189;DHT22;9219;50.396;8.546;2024-03-23T07:46:44;3.90;99.90
18189;DHT22;9219;50.396;8.546;2024-03-23T07:49:22;3.90;99.90
18189;DHT22;9219;50.396;8.546;2024-03-23T07:52:13;3.90;99.90
18189;DHT22;9219;50.396;8.546;2024-03-23T07:54:53;4.00;99.90
18189;DHT22;9219;50.396;8.546;2024-03-23T07:57:29;3.90;99.90
18189;DHT22;9219;50.396;8.546;2024-03-23T08:03:38;4.00;99.90
18189;DHT22;9219;50.396;8.546;2024-03-23T08:08:59;4.10;99.90
18189;DHT22;9219;50.396;8.546;2024-03-23T08:11:26;3.90;99.90
18189;DHT22;9219;50.396;8.546;2024-03-23T08:13:53;3.90;99.90
18189;DHT22;9219;50.396;8.546;2024-03-23T08:16:21;4.10;99.90
18189;DHT22;9219;50.396;8.546;2024-03-23T08:18:48;4.20;99.90
18189;DHT22;9219;50.396;8.546;2024-03-23T08:21:18;4.00;99.90
18189;DHT22;9219;50.396;8.546;2024-03-23T08:23:46;4.10;99.90
18189;DHT22;9219;50.396;8.546;2024-03-23T08:30:56;3.90;99.90
18189;DHT22;9219;50.396;8.546;2024-03-23T08:33:24;3.90;99.90
18189;DHT22;9219;50.396;8.546;2024-03-23T08:35:54;4.20;99.90
18189;DHT22;9219;50.396;8.546;2024-03-23T08:38:22;4.20;99.90
18189;DHT22;9219;50.396;8.546;2024-03-23T08:40:57;4.30;99.90
18189;DHT22;9219;50.396;8.546;2024-03-23T08:43:26;4.10;99.90
18189;DHT22;9219;50.396;8.546;2024-03-23T08:45:53;4.00;99.90
18189;DHT22;9219;50.396;8.546;2024-03-23T08:52:53;4.30;99.90
18189;DHT22;9219;50.396;8.546;2024-03-23T08:55:20;4.50;99.90
18189;DHT22;9219;50.396;8.546;2024-03-23T08:57:49;4.70;99.90
18189;DHT22;9219;50.396;8.546;2024-03-23T09:00:18;4.80;99.90
18189;DHT22;9219;50.396;8.546;2024-03-23T09:02:48;4.80;99.90
18189;DHT22;9219;50.396;8.546;2024-03-23T09:05:16;5.10;99.90
18189;DHT22;9219;50.396;8.546;2024-03-23T09:07:43;5.10;99.90
18189;DHT22;9219;50.396;8.546;2024-03-23T09:15:07;4.80;99.90
18189;DHT22;9219;50.396;8.546;2024-03-23T09:17:35;5.00;99.90
18189;DHT22;9219;50.396;8.546;2024-03-23T09:20:04;5.10;99.90
18189;DHT22;9219;50.396;8.546;2024-03-23T09:22:33;5.20;99.90
18189;DHT22;9219;50.396;8.546;2024-03-23T09:25:01;5.20;99.90
18189;DHT22;9219;50.396;8.546;2024-03-23T09:27:33;5.40;99.90
18189;DHT22;9219;50.396;8.546;2024-03-23T09:30:02;5.40;99.90
18189;DHT22;9219;50.396;8.546;2024-03-23T09:45:36;5.50;99.90
18189;DHT22;9219;50.396;8.546;2024-03-23T09:48:20;6.50;99.90
18189;DHT22;9219;50.396;8.546;2024-03-23T09:50:53;6.40;99.90
18189;DHT22;9219;50.396;8.546;2024-03-23T09:53:24;6.60;99.90
18189;DHT22;9219;50.396;8.546;2024-03-23T09:56:17;6.40;99.90
18189;DHT22;9219;50.396;8.546;2024-03-23T09:59:09;5.80;99.90
18189;DHT22;9219;50.396;8.546;2024-03-23T10:01:42;5.80;99.90
18189;DHT22;9219;50.396;8.546;2024-03-23T10:04:40;5.80;99.90
18189;DHT22;9219;50.396;8.546;2024-03-23T10:07:12;6.00;99.90
18189;DHT22;9219;50.396;8.546;2024-03-23T10:09:41;6.30;99.90
18189;DHT22;9219;50.396;8.546;2024-03-23T10:12:10;6.70;99.90
18189;DHT22;9219;50.396;8.546;2024-03-23T10:19:30;4.70;99.90
18189;DHT22;9219;50.396;8.546;2024-03-23T10:22:02;3.00;99.90
18189;DHT22;9219;50.396;8.546;2024-03-23T10:24:38;2.90;99.90
18189;DHT22;9219;50.396;8.546;2024-03-23T10:27:16;2.80;99.90
18189;DHT22;9219;50.396;8.546;2024-03-23T10:29:48;2.80;99.90
18189;DHT22;9219;50.396;8.546;2024-03-23T10:36:16;3.30;99.90
18189;DHT22;9219;50.396;8.546;2024-03-23T10:38:53;3.70;99.90
18189;DHT22;9219;50.396;8.546;2024-03-23T10:41:38;3.80;99.90
18189;DHT22;9219;50.396;8.546;2024-03-23T10:44:23;4.00;99.90
18189;DHT22;9219;50.396;8.546;2024-03-23T10:47:30;4.10;99.90
18189;DHT22;9219;50.396;8.546;2024-03-23T10:56:29;4.60;99.90
18189;DHT22;9219;50.396;8.546;2024-03-23T10:59:02;4.80;99.90
18189;DHT22;9219;50.396;8.546;2024-03-23T11:01:31;5.20;99.90
18189;DHT22;9219;50.396;8.546;2024-03-23T11:04:02;5.70;99.90
18189;DHT22;9219;50.396;8.546;2024-03-23T11:06:35;5.80;99.90
18189;DHT22;9219;50.396;8.546;2024-03-23T11:09:03;6.30;99.90
18189;DHT22;9219;50.396;8.546;2024-03-23T11:11:31;6.30;99.90
18189;DHT22;9219;50.396;8.546;2024-03-23T11:18:41;6.60;99.90
18189;DHT22;9219;50.396;8.546;2024-03-23T11:21:51;6.80;99.90
18189;DHT22;9219;50.396;8.546;2024-03-23T11:24:20;7.30;99.90
18189;DHT22;9219;50.396;8.546;2024-03-23T11:26:49;7.40;99.90
18189;DHT22;9219;50.396;8.546;2024-03-23T11:29:19;7.80;99.90
18189;DHT22;9219;50.396;8.546;2024-03-23T11:31:49;7.80;99.90
18189;DHT22;9219;50.396;8.546;2024-03-23T11:39:43;7.40;99.90
18189;DHT22;9219;50.396;8.546;2024-03-23T11:50:41;7.50;99.90
18189;DHT22;9219;50.396;8.546;2024-03-23T11:53:29;7.80;99.90
18189;DHT22;9219;50.396;8.546;2024-03-23T11:56:28;8.10;99.90
18189;DHT22;9219;50.396;8.546;2024-03-23T11:59:53;7.90;99.90
18189;DHT22;9219;50.396;8.546;2024-03-23T12:03:09;7.40;99.90
18189;DHT22;9219;50.396;8.546;2024-03-23T12:05:37;7.50;99.90
18189;DHT22;9219;50.396;8.546;2024-03-23T12:08:23;7.90;99.90
18189;DHT22;9219;50.396;8.546;2024-03-23T12:10:52;8.10;99.90
18189;DHT22;9219;50.396;8.546;2024-03-23T12:27:30;8.10;99.90
18189;DHT22;9219;50.396;8.546;2024-03-23T12:29:57;7.20;99.90
18189;DHT22;9219;50.396;8.546;2024-03-23T12:32:25;7.20;99.90
18189;DHT22;9219;50.396;8.546;2024-03-23T12:34:53;6.60;99.90
18189;DHT22;9219;50.396;8.546;2024-03-23T12:37:20;6.00;99.90
18189;DHT22;9219;50.396;8.546;2024-03-23T12:39:48;5.50;99.90
18189;DHT22;9219;50.396;8.546;2024-03-23T12:42:18;5.20;99.90
18189;DHT22;9219;50.396;8.546;2024-03-23T12:49:46;4.60;99.90
18189;DHT22;9219;50.396;8.546;2024-03-23T12:52:16;4.60;99.90
18189;DHT22;9219;50.396;8.546;2024-03-23T12:54:44;4.70;99.90
18189;DHT22;9219;50.396;8.546;2024-03-23T12:57:13;4.60;99.90
18189;DHT22;9219;50.396;8.546;2024-03-23T12:59:42;4.50;99.90
18189;DHT22;9219;50.396;8.546;2024-03-23T13:02:11;4.50;99.90
18189;DHT22;9219;50.396;8.546;2024-03-23T13:04:39;4.50;99.90
18189;DHT22;9219;50.396;8.546;2024-03-23T13:11:48;4.60;99.90
18189;DHT22;9219;50.396;8.546;2024-03-23T13:14:16;4.50;99.90
18189;DHT22;9219;50.396;8.546;2024-03-23T13:16:45;4.40;99.90
18189;DHT22;9219;50.396;8.546;2024-03-23T13:19:12;4.00;99.90
18189;DHT22;9219;50.396;8.546;2024-03-23T13:21:41;3.60;99.90
18189;DHT22;9219;50.396;8.546;2024-03-23T13:24:10;3.40;99.90
18189;DHT22;9219;50.396;8.546;2024-03-23T13:26:37;3.50;99.90
18189;DHT22;9219;50.396;8.546;2024-03-23T13:33:58;4.40;99.90
18189;DHT22;9219;50.396;8.546;2024-03-23T13:36:25;5.00;99.90
18189;DHT22;9219;50.396;8.546;2024-03-23T13:38:51;5.10;99.90
18189;DHT22;9219;50.396;8.546;2024-03-23T13:41:20;5.30;99.90
18189;DHT22;9219;50.396;8.546;2024-03-23T13:43:49;5.60;99.90
18189;DHT22;9219;50.396;8.546;2024-03-23T13:46:17;5.80;99.90
18189;DHT22;9219;50.396;8.546;2024-03-23T13:48:44;5.60;99.90
18189;DHT22;9219;50.396;8.546;2024-03-23T13:55:55;5.30;99.90
18189;DHT22;9219;50.396;8.546;2024-03-23T13:58:23;5.00;99.90
18189;DHT22;9219;50.396;8.546;2024-03-23T14:00:52;4.90;99.90
18189;DHT22;9219;50.396;8.546;2024-03-23T14:03:21;4.80;99.90
18189;DHT22;9219;50.396;8.546;2024-03-23T14:05:47;4.60;99.90
18189;DHT22;9219;50.396;8.546;2024-03-23T14:08:15;4.60;99.90
18189;DHT22;9219;50.396;8.546;2024-03-23T14:10:42;4.50;99.90
18189;DHT22;9219;50.396;8.546;2024-03-23T14:18:18;4.80;99.90
18189;DHT22;9219;50.396;8.546;2024-03-23T14:27:56;4.70;99.90
18189;DHT22;9219;50.396;8.546;2024-03-23T14:31:10;5.00;99.90
18189;DHT22;9219;50.396;8.546;2024-03-23T14:34:05;5.30;99.90
18189;DHT22;9219;50.396;8.546;2024-03-23T14:37:08;5.00;99.90
18189;DHT22;9219;50.396;8.546;2024-03-23T14:40:08;5.20;99.90
18189;DHT22;9219;50.396;8.546;2024-03-23T14:42:55;5.50;99.90
18189;DHT22;9219;50.396;8.546;2024-03-23T14:46:16;5.60;99.90
18189;DHT22;9219;50.396;8.546;2024-03-23T14:52:46;5.50;99.90
18189;DHT22;9219;50.396;8.546;2024-03-23T15:00:21;5.80;99.90
18189;DHT22;9219;50.396;8.546;2024-03-23T15:02:49;6.00;99.90
18189;DHT22;9219;50.396;8.546;2024-03-23T15:05:19;6.10;99.90
18189;DHT22;9219;50.396;8.546;2024-03-23T15:07:47;6.50;99.90
18189;DHT22;9219;50.396;8.546;2024-03-23T15:10:16;6.80;99.90
18189;DHT22;9219;50.396;8.546;2024-03-23T15:12:46;7.10;99.90
18189;DHT22;9219;50.396;8.546;2024-03-23T15:15:14;7.30;99.90
18189;DHT22;9219;50.396;8.546;2024-03-23T15:20:22;7.20;99.90
18189;DHT22;9219;50.396;8.546;2024-03-23T15:22:52;7.00;99.90
18189;DHT22;9219;50.396;8.546;2024-03-23T15:25:19;7.00;99.90
18189;DHT22;9219;50.396;8.546;2024-03-23T15:27:49;7.00;99.90
18189;DHT22;9219;50.396;8.546;2024-03-23T15:30:20;6.90;99.90
18189;DHT22;9219;50.396;8.546;2024-03-23T15:32:47;7.10;99.90
18189;DHT22;9219;50.396;8.546;2024-03-23T15:35:15;7.20;99.90
18189;DHT22;9219;50.396;8.546;2024-03-23T15:42:18;7.00;99.90
18189;DHT22;9219;50.396;8.546;2024-03-23T15:44:46;7.10;99.90
18189;DHT22;9219;50.396;8.546;2024-03-23T15:47:13;7.10;99.90
18189;DHT22;9219;50.396;8.546;2024-03-23T15:49:43;6.80;99.90
18189;DHT22;9219;50.396;8.546;2024-03-23T15:52:10;6.50;99.90
18189;DHT22;9219;50.396;8.546;2024-03-23T15:54:38;6.50;99.90
18189;DHT22;9219;50.396;8.546;2024-03-23T15:57:06;6.60;99.90
18189;DHT22;9219;50.396;8.546;2024-03-23T16:04:02;7.10;99.90
18189;DHT22;9219;50.396;8.546;2024-03-23T16:06:29;7.40;99.90
18189;DHT22;9219;50.396;8.546;2024-03-23T16:08:56;7.30;99.90
18189;DHT22;9219;50.396;8.546;2024-03-23T16:11:24;7.40;99.90
18189;DHT22;9219;50.396;8.546;2024-03-23T16:13:51;7.30;99.90
18189;DHT22;9219;50.396;8.546;2024-03-23T16:16:19;7.10;99.90
18189;DHT22;9219;50.396;8.546;2024-03-23T16:18:48;6.80;99.90
18189;DHT22;9219;50.396;8.546;2024-03-23T16:25:47;6.40;99.90
18189;DHT22;9219;50.396;8.546;2024-03-23T16:28:24;6.50;99.90
18189;DHT22;9219;50.396;8.546;2024-03-23T16:30:55;6.20;99.90
18189;DHT22;9219;50.396;8.546;2024-03-23T16:33:22;6.50;99.90
18189;DHT22;9219;50.396;8.546;2024-03-23T16:35:58;6.20;99.90
18189;DHT22;9219;50.396;8.546;2024-03-23T16:38:27;6.00;99.90
18189;DHT22;9219;50.396;8.546;2024-03-23T16:40:56;5.90;99.90
18189;DHT22;9219;50.396;8.546;2024-03-23T16:46:06;5.90;99.90
18189;DHT22;9219;50.396;8.546;2024-03-23T16:48:39;5.10;99.90
18189;DHT22;9219;50.396;8.546;2024-03-23T16:51:08;5.00;99.90
18189;DHT22;9219;50.396;8.546;2024-03-23T16:53:37;5.10;99.90
18189;DHT22;9219;50.396;8.546;2024-03-23T16:56:06;5.20;99.90
18189;DHT22;9219;50.396;8.546;2024-03-23T16:58:35;5.10;99.90
18189;DHT22;9219;50.396;8.546;2024-03-23T17:01:04;4.80;99.90
18189;DHT22;9219;50.396;8.546;2024-03-23T17:08:14;4.90;99.90
18189;DHT22;9219;50.396;8.546;2024-03-23T17:10:41;4.30;99.90
18189;DHT22;9219;50.396;8.546;2024-03-23T17:13:09;4.50;99.90
18189;DHT22;9219;50.396;8.546;2024-03-23T17:15:42;4.20;99.90
18189;DHT22;9219;50.396;8.546;2024-03-23T17:18:13;4.20;99.90
18189;DHT22;9219;50.396;8.546;2024-03-23T17:20:40;4.10;99.90
18189;DHT22;9219;50.396;8.546;2024-03-23T17:23:07;4.20;99.90
18189;DHT22;9219;50.396;8.546;2024-03-23T17:29:58;4.00;99.90
18189;DHT22;9219;50.396;8.546;2024-03-23T17:32:28;3.40;99.90
18189;DHT22;9219;50.396;8.546;2024-03-23T17:34:56;2.80;99.90
18189;DHT22;9219;50.396;8.546;2024-03-23T17:37:23;2.30;99.90
18189;DHT22;9219;50.396;8.546;2024-03-23T17:39:50;2.10;99.90
18189;DHT22;9219;50.396;8.546;2024-03-23T17:42:17;2.20;99.90
18189;DHT22;9219;50.396;8.546;2024-03-23T17:44:44;2.30;99.90
18189;DHT22;9219;50.396;8.546;2024-03-23T17:49:52;2.60;99.90
18189;DHT22;9219;50.396;8.546;2024-03-23T17:52:19;3.10;99.90
18189;DHT22;9219;50.396;8.546;2024-03-23T17:54:47;3.10;99.90
18189;DHT22;9219;50.396;8.546;2024-03-23T17:57:16;3.00;99.90
18189;DHT22;9219;50.396;8.546;2024-03-23T17:59:43;2.80;99.90
18189;DHT22;9219;50.396;8.546;2024-03-23T18:02:10;2.80;99.90
18189;DHT22;9219;50.396;8.546;2024-03-23T18:04:37;2.80;99.90
18189;DHT22;9219;50.396;8.546;2024-03-23T18:12:06;2.80;99.90
18189;DHT22;9219;50.396;8.546;2024-03-23T18:14:33;2.50;99.90
18189;DHT22;9219;50.396;8.546;2024-03-23T18:17:00;2.50;99.90
18189;DHT22;9219;50.396;8.546;2024-03-23T18:19:27;2.50;99.90
18189;DHT22;9219;50.396;8.546;2024-03-23T18:21:56;2.40;99.90
18189;DHT22;9219;50.396;8.546;2024-03-23T18:24:24;2.50;99.90
18189;DHT22;9219;50.396;8.546;2024-03-23T18:26:54;2.70;99.90
18189;DHT22;9219;50.396;8.546;2024-03-23T18:34:27;2.70;99.90
18189;DHT22;9219;50.396;8.546;2024-03-23T18:36:54;2.90;99.90
18189;DHT22;9219;50.396;8.546;2024-03-23T18:39:25;2.80;99.90
18189;DHT22;9219;50.396;8.546;2024-03-23T18:41:55;2.70;99.90
18189;DHT22;9219;50.396;8.546;2024-03-23T18:44:21;2.90;99.90
18189;DHT22;9219;50.396;8.546;2024-03-23T18:46:49;2.90;99.90
18189;DHT22;9219;50.396;8.546;2024-03-23T18:49:19;2.90;99.90
18189;DHT22;9219;50.396;8.546;2024-03-23T18:56:25;2.60;99.90
18189;DHT22;9219;50.396;8.546;2024-03-23T18:58:54;2.70;99.90
18189;DHT22;9219;50.396;8.546;2024-03-23T19:01:21;2.60;99.90
18189;DHT22;9219;50.396;8.546;2024-03-23T19:03:49;2.70;99.90
18189;DHT22;9219;50.396;8.546;2024-03-23T19:06:17;3.00;99.90
18189;DHT22;9219;50.396;8.546;2024-03-23T19:08:45;3.20;99.90
18189;DHT22;9219;50.396;8.546;2024-03-23T19:11:12;3.30;99.90
18189;DHT22;9219;50.396;8.546;2024-03-23T19:18:22;3.30;99.90
18189;DHT22;9219;50.396;8.546;2024-03-23T19:20:53;3.10;99.90
18189;DHT22;9219;50.396;8.546;2024-03-23T19:23:24;3.00;99.90
18189;DHT22;9219;50.396;8.546;2024-03-23T19:25:53;2.80;99.90
18189;DHT22;9219;50.396;8.546;2024-03-23T19:28:21;2.90;99.90
18189;DHT22;9219;50.396;8.546;2024-03-23T19:30:48;2.90;99.90
18189;DHT22;9219;50.396;8.546;2024-03-23T19:33:16;3.00;99.90
18189;DHT22;9219;50.396;8.546;2024-03-23T19:38:22;3.40;99.90
18189;DHT22;9219;50.396;8.546;2024-03-23T19:40:53;3.20;99.90
18189;DHT22;9219;50.396;8.546;2024-03-23T19:43:21;3.40;99.90
18189;DHT22;9219;50.396;8.546;2024-03-23T19:45:49;3.30;99.90
18189;DHT22;9219;50.396;8.546;2024-03-23T19:48:16;3.10;99.90
18189;DHT22;9219;50.396;8.546;2024-03-23T19:50:53;2.90;99.90
18189;DHT22;9219;50.396;8.546;2024-03-23T19:53:21;2.80;99.90
18189;DHT22;9219;50.396;8.546;2024-03-23T19:58:36;3.10;99.90
18189;DHT22;9219;50.396;8.546;2024-03-23T20:01:13;3.00;99.90
18189;DHT22;9219;50.396;8.546;2024-03-23T20:03:40;3.10;99.90
18189;DHT22;9219;50.396;8.546;2024-03-23T20:06:08;3.10;99.90
18189;DHT22;9219;50.396;8.546;2024-03-23T20:08:34;3.30;99.90
18189;DHT22;9219;50.396;8.546;2024-03-23T20:11:03;3.50;99.90
18189;DHT22;9219;50.396;8.546;2024-03-23T20:13:30;3.60;99.90
18189;DHT22;9219;50.396;8.546;2024-03-23T20:20:33;3.90;99.90
18189;DHT22;9219;50.396;8.546;2024-03-23T20:23:01;4.00;99.90
18189;DHT22;9219;50.396;8.546;2024-03-23T20:25:30;4.20;99.90
18189;DHT22;9219;50.396;8.546;2024-03-23T20:27:58;4.30;99.90
18189;DHT22;9219;50.396;8.546;2024-03-23T20:30:25;4.20;99.90
18189;DHT22;9219;50.396;8.546;2024-03-23T20:32:53;4.30;99.90
18189;DHT22;9219;50.396;8.546;2024-03-23T20:35:22;4.30;99.90
18189;DHT22;9219;50.396;8.546;2024-03-23T20:42:31;4.40;99.90
18189;DHT22;9219;50.396;8.546;2024-03-23T20:44:59;3.90;99.90
18189;DHT22;9219;50.396;8.546;2024-03-23T20:47:28;3.90;99.90
18189;DHT22;9219;50.396;8.546;2024-03-23T20:49:57;3.80;99.90
18189;DHT22;9219;50.396;8.546;2024-03-23T20:52:24;3.80;99.90
18189;DHT22;9219;50.396;8.546;2024-03-23T20:54:53;3.60;99.90
18189;DHT22;9219;50.396;8.546;2024-03-23T20:57:20;3.40;99.90
18189;DHT22;9219;50.396;8.546;2024-03-23T21:02:43;3.20;99.90
18189;DHT22;9219;50.396;8.546;2024-03-23T21:05:16;3.30;99.90
18189;DHT22;9219;50.396;8.546;2024-03-23T21:07:45;3.30;99.90
18189;DHT22;9219;50.396;8.546;2024-03-23T21:10:16;3.30;99.90
18189;DHT22;9219;50.396;8.546;2024-03-23T21:12:44;3.10;99.90
18189;DHT22;9219;50.396;8.546;2024-03-23T21:15:12;3.20;99.90
18189;DHT22;9219;50.396;8.546;2024-03-23T21:21:26;2.80;99.90
18189;DHT22;9219;50.396;8.546;2024-03-23T21:23:55;3.10;99.90
18189;DHT22;9219;50.396;8.546;2024-03-23T21:26:24;3.20;99.90
18189;DHT22;9219;50.396;8.546;2024-03-23T21:28:54;3.20;99.90
18189;DHT22;9219;50.396;8.546;2024-03-23T21:31:22;3.40;99.90
18189;DHT22;9219;50.396;8.546;2024-03-23T21:33:56;3.50;99.90
18189;DHT22;9219;50.396;8.546;2024-03-23T21:36:27;3.40;99.90
18189;DHT22;9219;50.396;8.546;2024-03-23T21:40:10;3.70;99.90
18189;DHT22;9219;50.396;8.546;2024-03-23T21:42:39;4.00;99.90
18189;DHT22;9219;50.396;8.546;2024-03-23T21:45:08;4.00;99.90
18189;DHT22;9219;50.396;8.546;2024-03-23T21:47:35;4.00;99.90
18189;DHT22;9219;50.396;8.546;2024-03-23T21:50:04;4.10;99.90
18189;DHT22;9219;50.396;8.546;2024-03-23T21:52:33;4.00;99.90
18189;DHT22;9219;50.396;8.546;2024-03-23T21:55:01;4.10;99.90
18189;DHT22;9219;50.396;8.546;2024-03-23T22:02:34;4.10;99.90
18189;DHT22;9219;50.396;8.546;2024-03-23T22:05:02;4.30;99.90
18189;DHT22;9219;50.396;8.546;2024-03-23T22:07:29;4.20;99.90